KMZZ/MZZ METAR and TAF weather

Enter ICAO airport designator
Station Type Date Time Source
KMZZ METAR 2019/02/16 17:15 UTC NOAA

KMZZ 161715Z AUTO 00000KT 10SM OVC018 M04/M08 A3010 RMK AO2 T10361084


Station Type Date Time Source
KMZZ Decoded METAR 2019/02/16 17:15 UTC NOAA

Station name not available
Feb 16, 2019 - 12:15 PM EST / 2019.02.16 1715 UTC
Wind: Calm:0
Visibility: 10 mile(s):0
Sky conditions: overcast
Temperature: 25.5 F (-3.6 C)
Dew Point: 16.9 F (-8.4 C)
Relative Humidity: 69%
Pressure (altimeter): 30.1 in. Hg (1019 hPa)
ob: KMZZ 161715Z AUTO 00000KT 10SM OVC018 M04/M08 A3010 RMK AO2 T10361084
cycle: 17

Station Type Date Time Source
KMZZ TAF UTC NOAA

Error!


Example: see airport list